Turbat Weather



Turbat's Current Weather

Temprature 36.3o clear sky

clear sky

Rain: 0 %

Min Temprature36.3o
Max Temprature36.3o
Humidity9
Wind Speed3.76 m/h
Sun Rise06:47:45
Sun Set18:18:02
Current Time: 18-Oct-2019 16:04:54
Lat/Lon: 26, 63.05




Turbat's Geo Location



Turbat's Weather Forecast

Time Overall Temp Min Temp Max Temp Humidity Wind Speed Rain
18-Oct-2019 (Fri)
17:00:00 clear sky 36.420 36.300 36.420 9 3.76 m/h 0 %
20:00:00 clear sky 32.600 32.510 32.600 10 4.33 m/h 0 %
23:00:00 clear sky 29.200 29.138 29.200 11 1.69 m/h 0 %
19-Oct-2019 (Sat)
02:00:00 clear sky 27.940 27.908 27.940 12 2.77 m/h 0 %
05:00:00 scattered clouds 27.223 27.223 27.223 13 4.75 m/h 0 %
08:00:00 few clouds 27.811 27.811 27.811 13 5.44 m/h 0 %
11:00:00 clear sky 35.040 35.040 35.040 6 5.88 m/h 0 %
14:00:00 overcast clouds 36.666 36.666 36.666 6 3.36 m/h 0 %
17:00:00 broken clouds 36.672 36.672 36.672 6 3.86 m/h 0 %
20:00:00 clear sky 30.088 30.088 30.088 16 7.02 m/h 0 %
23:00:00 clear sky 27.337 27.337 27.337 23 1.36 m/h 0 %
20-Oct-2019 (Sun)
02:00:00 clear sky 26.117 26.117 26.117 21 1.26 m/h 0 %
05:00:00 clear sky 25.404 25.404 25.404 16 1.76 m/h 0 %
08:00:00 clear sky 27.672 27.672 27.672 11 2.24 m/h 0 %
11:00:00 clear sky 33.650 33.650 33.650 7 1.37 m/h 0 %
14:00:00 clear sky 35.962 35.962 35.962 6 2.72 m/h 0 %
17:00:00 clear sky 35.888 35.888 35.888 7 3.75 m/h 0 %
20:00:00 clear sky 30.152 30.152 30.152 16 2.82 m/h 0 %
23:00:00 clear sky 27.407 27.407 27.407 20 0.48 m/h 0 %
21-Oct-2019 (Mon)
02:00:00 clear sky 26.080 26.080 26.080 20 1.09 m/h 0 %
05:00:00 clear sky 24.561 24.561 24.561 22 0.4 m/h 0 %
08:00:00 clear sky 27.589 27.589 27.589 18 0.5 m/h 0 %
11:00:00 clear sky 33.027 33.027 33.027 12 1.52 m/h 0 %
14:00:00 clear sky 35.705 35.705 35.705 13 3.14 m/h 0 %
17:00:00 clear sky 35.974 35.974 35.974 12 5.11 m/h 0 %
20:00:00 clear sky 32.124 32.124 32.124 19 2.64 m/h 0 %
23:00:00 clear sky 29.870 29.870 29.870 22 2.93 m/h 0 %
22-Oct-2019 (Tue)
02:00:00 clear sky 27.566 27.566 27.566 25 1.47 m/h 0 %
05:00:00 clear sky 26.099 26.099 26.099 28 0.5 m/h 0 %
08:00:00 clear sky 28.762 28.762 28.762 24 0.39 m/h 0 %
11:00:00 clear sky 33.279 33.279 33.279 17 1.43 m/h 0 %
14:00:00 clear sky 36.029 36.029 36.029 15 2.88 m/h 0 %
17:00:00 clear sky 36.462 36.462 36.462 13 4.18 m/h 0 %
20:00:00 clear sky 31.050 31.050 31.050 32 2.42 m/h 0 %
23:00:00 clear sky 29.439 29.439 29.439 33 2.12 m/h 0 %
23-Oct-2019 (Wed)
02:00:00 clear sky 28.006 28.006 28.006 23 2.15 m/h 0 %
05:00:00 clear sky 27.227 27.227 27.227 17 4.33 m/h 0 %
08:00:00 clear sky 27.809 27.809 27.809 15 5.22 m/h 0 %
11:00:00 clear sky 33.815 33.815 33.815 10 8.32 m/h 0 %
14:00:00 clear sky 36.039 36.039 36.039 10 3.19 m/h 0 %

Famous Cities (61)